createdAt,value
2018-06-17T00:00:46.881Z,15.20
2018-06-17T00:03:24.453Z,14.87
2018-06-17T00:06:00.609Z,15.20
2018-06-17T00:08:37.050Z,18.33
2018-06-17T00:11:12.731Z,18.50
2018-06-17T00:13:49.445Z,14.60
2018-06-17T00:16:26.726Z,14.63
2018-06-17T00:19:04.075Z,14.17
2018-06-17T00:21:39.841Z,15.17
2018-06-17T00:24:15.588Z,15.30
2018-06-17T00:26:51.082Z,16.87
2018-06-17T00:29:27.614Z,16.30
2018-06-17T00:32:04.189Z,16.13
2018-06-17T00:34:41.114Z,17.03
2018-06-17T00:37:17.052Z,17.50
2018-06-17T00:39:53.674Z,16.27
2018-06-17T00:42:29.696Z,15.87
2018-06-17T00:45:06.998Z,16.23
2018-06-17T00:47:43.601Z,17.07
2018-06-17T00:50:19.516Z,17.57
2018-06-17T00:52:55.907Z,18.77
2018-06-17T00:55:33.272Z,18.87
2018-06-17T00:58:09.125Z,18.97
2018-06-17T01:00:45.091Z,17.03
2018-06-17T01:03:22.057Z,17.53
2018-06-17T01:05:58.346Z,17.10
2018-06-17T01:08:34.822Z,18.60
2018-06-17T01:11:11.668Z,16.93
2018-06-17T01:13:47.720Z,16.20
2018-06-17T01:16:25.006Z,18.03
2018-06-17T01:19:02.266Z,18.13
2018-06-17T01:21:38.276Z,16.77
2018-06-17T01:24:14.707Z,18.07
2018-06-17T01:26:50.498Z,17.60
2018-06-17T01:29:26.186Z,17.97
2018-06-17T01:32:03.335Z,18.27
2018-06-17T01:34:40.632Z,17.93
2018-06-17T01:37:18.285Z,18.00
2018-06-17T01:39:54.750Z,17.73
2018-06-17T01:42:31.523Z,17.77
2018-06-17T01:45:07.840Z,17.00
2018-06-17T01:47:44.125Z,16.17
2018-06-17T01:50:20.864Z,17.27
2018-06-17T01:52:56.701Z,16.93
2018-06-17T01:55:33.485Z,17.23
2018-06-17T01:58:09.497Z,17.40
2018-06-17T02:00:46.233Z,17.77
2018-06-17T02:03:27.535Z,17.43
2018-06-17T02:06:08.549Z,17.47
2018-06-17T02:08:50.033Z,17.50
2018-06-17T02:11:31.423Z,16.80
2018-06-17T02:14:15.220Z,16.47
2018-06-17T02:16:51.117Z,19.77
2018-06-17T02:19:26.951Z,17.47
2018-06-17T02:22:03.547Z,19.37
2018-06-17T02:24:40.482Z,17.87
2018-06-17T02:27:16.987Z,17.77
2018-06-17T02:29:53.279Z,17.30
2018-06-17T02:32:28.893Z,17.63
2018-06-17T02:35:05.159Z,18.77
2018-06-17T02:37:41.040Z,21.13
2018-06-17T02:40:17.149Z,19.97
2018-06-17T02:42:54.281Z,19.63
2018-06-17T02:45:34.823Z,20.93
2018-06-17T02:48:16.332Z,21.50
2018-06-17T02:50:57.699Z,22.60
2018-06-17T02:53:39.022Z,21.13
2018-06-17T02:56:25.971Z,19.67
2018-06-17T02:59:01.762Z,20.70
2018-06-17T03:01:39.666Z,22.00
2018-06-17T03:04:16.804Z,20.17
2018-06-17T03:06:52.815Z,19.97
2018-06-17T03:09:29.273Z,21.33
2018-06-17T03:12:06.767Z,20.73
2018-06-17T03:14:43.297Z,20.60
2018-06-17T03:17:21.565Z,20.37
2018-06-17T03:19:59.101Z,19.97
2018-06-17T03:22:35.547Z,21.07
2018-06-17T03:25:17.109Z,20.73
2018-06-17T03:27:58.090Z,20.97
2018-06-17T03:30:39.231Z,19.03
2018-06-17T03:33:20.023Z,19.37
2018-06-17T03:36:02.587Z,19.43
2018-06-17T03:38:40.251Z,19.07
2018-06-17T03:41:16.182Z,19.30
2018-06-17T03:43:52.357Z,19.87
2018-06-17T03:46:27.998Z,18.67
2018-06-17T03:49:04.756Z,18.47
2018-06-17T03:51:41.453Z,20.33
2018-06-17T03:54:18.291Z,17.97
2018-06-17T03:56:55.907Z,18.23
2018-06-17T03:59:32.185Z,17.87
2018-06-17T04:02:08.449Z,18.17
2018-06-17T04:04:49.974Z,19.10
2018-06-17T04:07:27.042Z,20.03
2018-06-17T04:10:03.057Z,18.57
2018-06-17T04:12:42.801Z,18.30
2018-06-17T04:15:18.853Z,17.77
2018-06-17T04:17:54.861Z,17.00
2018-06-17T04:20:31.344Z,18.13
2018-06-17T04:23:07.258Z,17.53
2018-06-17T04:25:43.840Z,17.90
2018-06-17T04:28:20.468Z,18.47
2018-06-17T04:30:57.264Z,18.43
2018-06-17T04:33:34.546Z,19.00
2018-06-17T04:36:10.902Z,18.97
2018-06-17T04:38:47.396Z,18.53
2018-06-17T04:41:23.988Z,19.10
2018-06-17T04:44:00.032Z,20.03
2018-06-17T04:46:36.577Z,21.67
2018-06-17T04:49:12.208Z,18.60
2018-06-17T04:51:47.757Z,19.97
2018-06-17T04:54:24.739Z,18.27
2018-06-17T04:57:01.336Z,20.57
2018-06-17T04:59:37.584Z,19.47
2018-06-17T05:02:13.225Z,20.57
2018-06-17T05:04:58.967Z,19.77
2018-06-17T05:07:37.414Z,20.53
2018-06-17T05:10:14.941Z,20.00
2018-06-17T05:12:50.578Z,20.53
2018-06-17T05:15:27.730Z,21.77
2018-06-17T05:18:05.699Z,18.67
2018-06-17T05:20:41.366Z,17.40
2018-06-17T05:23:18.762Z,16.87
2018-06-17T05:25:54.445Z,15.83
2018-06-17T05:28:30.983Z,16.67
2018-06-17T05:31:06.805Z,15.97
2018-06-17T05:33:43.286Z,14.13
2018-06-17T05:36:20.036Z,15.50
2018-06-17T05:38:56.400Z,12.93
2018-06-17T05:41:32.799Z,11.57
2018-06-17T05:44:08.419Z,11.40
2018-06-17T05:46:45.412Z,10.97
2018-06-17T05:49:21.938Z,11.40
2018-06-17T05:51:58.454Z,12.53
2018-06-17T05:54:34.696Z,10.63
2018-06-17T05:57:12.156Z,10.37
2018-06-17T05:59:49.834Z,10.33
2018-06-17T06:02:26.014Z,10.07
2018-06-17T06:05:02.339Z,10.00
2018-06-17T06:07:38.152Z,12.03
2018-06-17T06:12:58.240Z,9.50
2018-06-17T06:15:36.487Z,9.10
2018-06-17T06:18:12.740Z,9.63
2018-06-17T06:20:49.711Z,9.10
2018-06-17T06:23:25.342Z,10.50
2018-06-17T06:26:04.846Z,12.27
2018-06-17T06:28:40.843Z,7.63
2018-06-17T06:31:17.906Z,8.30
2018-06-17T06:33:54.625Z,7.90
2018-06-17T06:36:30.288Z,9.43
2018-06-17T06:39:08.738Z,7.60
2018-06-17T06:41:45.003Z,9.77
2018-06-17T06:44:21.210Z,7.37
2018-06-17T06:46:56.985Z,6.70
2018-06-17T06:49:32.731Z,6.70
2018-06-17T06:52:09.430Z,5.90
2018-06-17T06:54:45.417Z,6.00
2018-06-17T06:57:24.647Z,5.40
2018-06-17T07:00:00.362Z,6.47
2018-06-17T07:02:47.269Z,8.27
2018-06-17T07:05:34.597Z,7.03
2018-06-17T07:08:21.120Z,5.50
2018-06-17T07:10:58.254Z,5.60
2018-06-17T07:13:34.690Z,5.47
2018-06-17T07:16:21.933Z,6.83
2018-06-17T07:18:58.287Z,4.97
2018-06-17T07:21:36.634Z,4.60
2018-06-17T07:24:12.438Z,4.23
2018-06-17T07:26:59.452Z,5.63
2018-06-17T07:29:45.028Z,4.10
2018-06-17T07:32:21.439Z,3.80
2018-06-17T07:34:56.942Z,5.83
2018-06-17T07:37:34.314Z,7.23
2018-06-17T07:41:15.197Z,7.57
2018-06-17T07:43:51.467Z,5.23
2018-06-17T07:46:29.652Z,4.90
2018-06-17T07:49:47.848Z,7.20
2018-06-17T07:52:35.425Z,8.43
2018-06-17T07:55:11.570Z,8.67
2018-06-17T07:57:48.361Z,5.60
2018-06-17T08:00:24.128Z,6.20
2018-06-17T08:02:59.700Z,9.83
2018-06-17T08:05:36.295Z,6.97
2018-06-17T08:08:13.121Z,8.27
2018-06-17T08:10:49.742Z,7.77
2018-06-17T08:13:25.889Z,6.30
2018-06-17T08:16:02.866Z,5.37
2018-06-17T08:18:39.428Z,7.87
2018-06-17T08:21:18.802Z,6.43
2018-06-17T08:23:55.407Z,7.03
2018-06-17T08:26:32.491Z,6.10
2018-06-17T08:29:08.783Z,9.33
2018-06-17T08:31:45.929Z,6.37
2018-06-17T08:34:23.535Z,9.73
2018-06-17T08:36:59.758Z,5.40
2018-06-17T08:39:35.984Z,6.50
2018-06-17T08:42:13.283Z,5.63
2018-06-17T08:44:49.948Z,8.40
2018-06-17T08:47:25.738Z,5.53
2018-06-17T08:50:01.916Z,8.33
2018-06-17T08:52:38.264Z,7.07
2018-06-17T08:55:14.127Z,7.20
2018-06-17T08:57:49.833Z,7.10
2018-06-17T09:00:25.912Z,6.63
2018-06-17T09:03:01.619Z,13.33
2018-06-17T09:05:37.453Z,8.30
2018-06-17T09:08:13.703Z,8.57
2018-06-17T09:10:49.217Z,7.00
2018-06-17T09:13:26.126Z,9.27
2018-06-17T09:16:02.470Z,7.93
2018-06-17T09:18:40.292Z,7.63
2018-06-17T09:21:26.845Z,6.63
2018-06-17T09:24:03.354Z,7.73
2018-06-17T09:26:40.350Z,14.37
2018-06-17T09:29:17.695Z,6.13
2018-06-17T09:31:54.032Z,6.97
2018-06-17T09:34:30.354Z,8.57
2018-06-17T09:37:06.278Z,8.37
2018-06-17T09:39:42.173Z,10.73
2018-06-17T09:42:18.674Z,7.10
2018-06-17T09:44:59.466Z,9.93
2018-06-17T09:47:48.362Z,7.23
2018-06-17T09:50:25.163Z,9.70
2018-06-17T09:53:01.704Z,10.57
2018-06-17T09:55:37.771Z,6.57
2018-06-17T09:58:14.726Z,9.30
2018-06-17T10:00:50.457Z,6.77
2018-06-17T10:03:26.023Z,14.13
2018-06-17T10:06:02.629Z,9.17
2018-06-17T10:08:39.236Z,6.90
2018-06-17T10:11:17.672Z,8.00
2018-06-17T10:13:57.494Z,10.03
2018-06-17T10:16:33.581Z,11.70
2018-06-17T10:19:09.937Z,5.70
2018-06-17T10:21:47.988Z,7.87
2018-06-17T10:24:25.802Z,8.17
2018-06-17T10:27:02.087Z,10.57
2018-06-17T10:29:38.778Z,8.77
2018-06-17T10:32:15.377Z,10.00
2018-06-17T10:34:51.843Z,7.53
2018-06-17T10:37:27.768Z,6.00
2018-06-17T10:40:04.770Z,6.87
2018-06-17T10:42:41.261Z,8.00
2018-06-17T10:45:18.428Z,6.07
2018-06-17T10:47:55.310Z,7.20
2018-06-17T10:50:33.549Z,6.67
2018-06-17T10:53:09.390Z,6.57
2018-06-17T10:55:45.432Z,8.53
2018-06-17T10:58:21.465Z,8.63
2018-06-17T11:00:57.962Z,11.00
2018-06-17T11:03:34.161Z,7.10
2018-06-17T11:06:10.422Z,8.13
2018-06-17T11:08:46.096Z,12.27
2018-06-17T11:11:23.360Z,11.73
2018-06-17T11:14:00.132Z,4.67
2018-06-17T11:16:36.496Z,9.40
2018-06-17T11:19:12.041Z,6.63
2018-06-17T11:21:48.340Z,4.90
2018-06-17T11:24:24.837Z,6.27
2018-06-17T11:27:01.354Z,7.17
2018-06-17T11:29:37.974Z,6.77
2018-06-17T11:32:16.118Z,5.83
2018-06-17T11:34:52.032Z,5.50
2018-06-17T11:37:27.529Z,5.60
2018-06-17T11:40:05.974Z,7.97
2018-06-17T11:42:42.927Z,7.20
2018-06-17T11:45:19.243Z,6.93
2018-06-17T11:47:55.585Z,6.87
2018-06-17T11:50:34.843Z,7.83
2018-06-17T11:53:11.088Z,7.47
2018-06-17T11:55:48.713Z,7.53
2018-06-17T11:58:24.536Z,9.73
2018-06-17T12:01:00.374Z,5.57
2018-06-17T12:03:36.293Z,5.50
2018-06-17T12:06:11.850Z,7.80
2018-06-17T12:08:47.379Z,8.03
2018-06-17T12:11:24.174Z,5.97
2018-06-17T12:14:00.228Z,10.10
2018-06-17T12:16:37.734Z,4.47
2018-06-17T12:19:13.510Z,7.20
2018-06-17T12:21:49.039Z,6.63
2018-06-17T12:24:24.593Z,9.00
2018-06-17T12:27:00.745Z,6.17
2018-06-17T12:29:36.347Z,5.78
2018-06-17T12:32:12.077Z,6.37
2018-06-17T12:34:49.877Z,7.72
2018-06-17T12:37:26.197Z,6.65
2018-06-17T12:40:03.358Z,6.53
2018-06-17T12:42:40.085Z,5.22
2018-06-17T12:45:15.697Z,9.30
2018-06-17T12:47:53.558Z,9.20
2018-06-17T12:50:29.170Z,8.15
2018-06-17T12:53:05.601Z,6.45
2018-06-17T12:55:42.904Z,5.62
2018-06-17T12:58:18.690Z,8.28
2018-06-17T13:00:57.775Z,5.92
2018-06-17T13:03:35.062Z,4.75
2018-06-17T13:06:11.409Z,6.20
2018-06-17T13:08:47.282Z,8.30
2018-06-17T13:11:24.281Z,6.40
2018-06-17T13:14:00.390Z,4.95
2018-06-17T13:16:38.221Z,4.30
2018-06-17T13:19:14.272Z,7.57
2018-06-17T13:21:50.938Z,6.33
2018-06-17T13:24:26.760Z,4.67
2018-06-17T13:27:03.325Z,7.37
2018-06-17T13:29:41.023Z,6.93
2018-06-17T13:32:17.803Z,7.57
2018-06-17T13:34:57.750Z,9.13
2018-06-17T13:37:33.346Z,8.03
2018-06-17T13:40:09.206Z,4.90
2018-06-17T13:42:46.041Z,5.70
2018-06-17T13:45:23.265Z,5.73
2018-06-17T13:47:59.162Z,5.80
2018-06-17T13:50:35.156Z,4.33
2018-06-17T13:53:10.777Z,7.07
2018-06-17T13:55:50.682Z,4.87
2018-06-17T13:58:27.934Z,3.90
2018-06-17T14:01:04.315Z,2.80
2018-06-17T14:03:40.496Z,5.67
2018-06-17T14:06:16.487Z,6.60
2018-06-17T14:08:54.334Z,9.77
2018-06-17T14:11:29.941Z,3.67
2018-06-17T14:14:06.864Z,5.00
2018-06-17T14:16:44.697Z,3.80
2018-06-17T14:19:20.520Z,3.53
2018-06-17T14:21:56.633Z,5.83
2018-06-17T14:24:32.357Z,4.73
2018-06-17T14:27:09.492Z,4.23
2018-06-17T14:29:45.633Z,5.90
2018-06-17T14:32:22.230Z,4.17
2018-06-17T14:34:57.753Z,5.27
2018-06-17T14:37:35.896Z,3.43
2018-06-17T14:40:11.435Z,3.77
2018-06-17T14:42:52.206Z,4.83
2018-06-17T14:45:33.520Z,6.20
2018-06-17T14:48:14.749Z,4.27
2018-06-17T14:50:56.778Z,3.37
2018-06-17T14:53:33.192Z,3.33
2018-06-17T14:56:09.262Z,4.83
2018-06-17T14:58:45.078Z,5.03
2018-06-17T15:01:21.035Z,5.73
2018-06-17T15:03:56.933Z,3.53
2018-06-17T15:06:32.994Z,4.80
2018-06-17T15:09:10.541Z,3.90
2018-06-17T15:11:47.464Z,4.03
2018-06-17T15:14:24.184Z,4.43
2018-06-17T15:16:59.726Z,4.40
2018-06-17T15:19:37.278Z,4.40
2018-06-17T15:22:14.436Z,3.13
2018-06-17T15:24:51.488Z,3.53
2018-06-17T15:27:27.446Z,6.00
2018-06-17T15:30:05.982Z,4.97
2018-06-17T15:34:47.801Z,5.90
2018-06-17T15:37:32.085Z,5.80
2018-06-17T15:40:08.094Z,3.37
2018-06-17T15:42:44.033Z,3.53
2018-06-17T15:45:20.577Z,4.90
2018-06-17T15:47:56.472Z,5.80
2018-06-17T15:50:33.483Z,9.63
2018-06-17T15:53:09.203Z,3.10
2018-06-17T15:55:45.139Z,3.80
2018-06-17T15:58:20.967Z,3.33
2018-06-17T16:00:57.279Z,3.60
2018-06-17T16:03:33.193Z,3.67
2018-06-17T16:06:09.890Z,2.93
2018-06-17T16:08:45.769Z,2.33
2018-06-17T16:11:24.781Z,3.10
2018-06-17T16:14:06.096Z,2.67
2018-06-17T16:16:46.766Z,1.60
2018-06-17T16:19:30.889Z,3.60
2018-06-17T16:22:06.761Z,5.63
2018-06-17T16:24:42.459Z,6.07
2018-06-17T16:27:18.163Z,5.80
2018-06-17T16:29:54.187Z,4.03
2018-06-17T16:32:31.874Z,3.53
2018-06-17T16:35:07.786Z,4.87
2018-06-17T16:37:43.741Z,5.20
2018-06-17T16:40:21.235Z,3.17
2018-06-17T16:42:56.804Z,6.83
2018-06-17T16:45:33.929Z,2.73
2018-06-17T16:48:11.422Z,5.87
2018-06-17T16:50:52.315Z,4.17
2018-06-17T16:53:34.118Z,4.40
2018-06-17T16:56:15.899Z,2.57
2018-06-17T16:58:58.677Z,3.97
2018-06-17T17:01:36.307Z,3.97
2018-06-17T17:04:12.827Z,4.47
2018-06-17T17:06:50.497Z,3.43
2018-06-17T17:09:26.137Z,3.97
2018-06-17T17:12:01.682Z,4.20
2018-06-17T17:14:40.828Z,3.20
2018-06-17T17:17:24.167Z,2.73
2018-06-17T17:20:15.582Z,6.00
2018-06-17T17:22:57.987Z,2.13
2018-06-17T17:25:52.298Z,4.00
2018-06-17T17:28:35.497Z,2.43
2018-06-17T17:31:18.867Z,3.10
2018-06-17T17:34:03.668Z,3.90
2018-06-17T17:36:55.500Z,3.37
2018-06-17T17:39:36.827Z,3.77
2018-06-17T17:42:15.605Z,4.87
2018-06-17T17:45:02.366Z,3.53
2018-06-17T17:48:03.808Z,4.73
2018-06-17T17:50:42.050Z,3.83
2018-06-17T17:56:07.803Z,3.33
2018-06-17T17:58:43.963Z,4.50
2018-06-17T18:01:28.895Z,2.53
2018-06-17T18:08:17.455Z,5.83
2018-06-17T18:13:58.671Z,5.00
2018-06-17T18:16:31.727Z,5.43
2018-06-17T18:21:50.250Z,3.90
2018-06-17T18:24:27.757Z,6.47
2018-06-17T18:27:22.592Z,4.43
2018-06-17T18:30:06.144Z,5.67
2018-06-17T18:32:53.648Z,4.47
2018-06-17T18:35:37.358Z,4.97
2018-06-17T18:38:14.640Z,4.10
2018-06-17T18:40:50.955Z,4.93
2018-06-17T18:43:26.817Z,4.30
2018-06-17T18:46:03.532Z,4.13
2018-06-17T18:48:39.158Z,3.13
2018-06-17T18:51:14.691Z,8.20
2018-06-17T18:53:52.272Z,6.63
2018-06-17T18:56:30.049Z,5.77
2018-06-17T18:59:06.167Z,4.67
2018-06-17T19:01:42.439Z,5.13
2018-06-17T19:04:18.196Z,5.50
2018-06-17T19:06:55.281Z,3.60
2018-06-17T19:09:36.166Z,5.40
2018-06-17T19:12:17.805Z,5.30
2018-06-17T19:14:58.904Z,3.90
2018-06-17T19:17:40.992Z,3.10
2018-06-17T19:20:18.592Z,4.03
2018-06-17T19:22:59.222Z,4.30
2018-06-17T19:25:36.369Z,4.77
2018-06-17T19:28:13.234Z,4.27
2018-06-17T19:30:51.458Z,3.80
2018-06-17T19:33:28.689Z,4.00
2018-06-17T19:36:05.029Z,3.30
2018-06-17T19:38:41.178Z,4.17
2018-06-17T19:41:18.035Z,1.70
2018-06-17T19:43:54.342Z,2.70
2018-06-17T19:46:31.057Z,5.13
2018-06-17T19:49:08.564Z,12.57
2018-06-17T19:51:49.712Z,4.20
2018-06-17T19:54:32.280Z,3.30
2018-06-17T19:59:25.475Z,6.83
2018-06-17T20:02:02.184Z,4.80
2018-06-17T20:04:39.449Z,4.40
2018-06-17T20:07:16.727Z,5.50
2018-06-17T20:09:53.723Z,3.00
2018-06-17T20:12:32.673Z,4.53
2018-06-17T20:15:09.814Z,6.10
2018-06-17T20:17:47.122Z,4.73
2018-06-17T20:20:23.340Z,6.03
2018-06-17T20:22:59.270Z,3.67
2018-06-17T20:25:35.911Z,4.50
2018-06-17T20:28:11.610Z,4.67
2018-06-17T20:30:48.319Z,2.93
2018-06-17T20:33:29.169Z,5.53
2018-06-17T20:36:18.017Z,4.00
2018-06-17T20:39:16.434Z,4.33
2018-06-17T20:41:57.781Z,3.53
2018-06-17T20:44:35.483Z,8.40
2018-06-17T20:47:32.226Z,4.30
2018-06-17T20:50:18.476Z,3.57
2018-06-17T20:56:06.687Z,4.27
2018-06-17T20:59:02.705Z,5.27
2018-06-17T21:02:11.540Z,5.20
2018-06-17T21:04:55.087Z,2.57
2018-06-17T21:17:45.666Z,4.63
2018-06-17T21:25:41.733Z,5.37
2018-06-17T21:28:23.415Z,4.20
2018-06-17T21:31:03.750Z,5.27
2018-06-17T21:33:49.602Z,7.77
2018-06-17T21:36:34.693Z,6.03
2018-06-17T21:39:12.097Z,5.37
2018-06-17T21:41:51.293Z,4.03
2018-06-17T21:44:38.580Z,7.30
2018-06-17T21:47:17.794Z,4.50
2018-06-17T21:50:00.112Z,6.03
2018-06-17T21:52:46.122Z,4.60
2018-06-17T21:55:27.243Z,3.37
2018-06-17T21:58:23.701Z,3.60
2018-06-17T22:01:07.310Z,3.57
2018-06-17T22:03:50.670Z,3.47
2018-06-17T22:06:38.644Z,4.10
2018-06-17T22:09:20.710Z,3.63
2018-06-17T22:12:07.185Z,7.37
2018-06-17T22:14:57.370Z,6.80
2018-06-17T22:17:39.553Z,2.73
2018-06-17T22:20:15.850Z,3.47
2018-06-17T22:23:00.112Z,3.67
2018-06-17T22:25:44.299Z,4.70
2018-06-17T22:28:29.434Z,6.23
2018-06-17T22:31:15.843Z,5.30
2018-06-17T22:33:58.873Z,5.67
2018-06-17T22:36:44.860Z,8.30
2018-06-17T22:39:26.856Z,4.40
2018-06-17T22:42:11.415Z,3.63
2018-06-17T22:44:56.016Z,4.70
2018-06-17T22:47:37.694Z,4.67
2018-06-17T22:50:15.398Z,3.37
2018-06-17T22:53:05.277Z,5.70
2018-06-17T22:55:46.880Z,4.23
2018-06-17T22:58:33.225Z,4.37
2018-06-17T23:01:16.515Z,4.10
2018-06-17T23:04:02.859Z,5.67
2018-06-17T23:06:44.815Z,4.93
2018-06-17T23:09:48.254Z,5.30
2018-06-17T23:12:29.152Z,4.13
2018-06-17T23:15:09.039Z,4.00
2018-06-17T23:17:50.800Z,7.47
2018-06-17T23:20:28.733Z,3.17
2018-06-17T23:23:06.964Z,4.80
2018-06-17T23:25:50.597Z,4.67
2018-06-17T23:28:34.530Z,3.83
2018-06-17T23:31:17.405Z,3.40
2018-06-17T23:33:58.653Z,3.83
2018-06-17T23:36:40.309Z,4.37
2018-06-17T23:39:21.171Z,4.17
2018-06-17T23:42:00.109Z,5.93
2018-06-17T23:44:36.899Z,4.60
2018-06-17T23:47:18.175Z,4.80
2018-06-17T23:49:59.711Z,7.73
2018-06-17T23:52:42.514Z,4.97
2018-06-17T23:55:25.862Z,4.80
2018-06-17T23:58:04.979Z,5.37
